createdAt,value
2022-12-25T00:02:17.838Z,64.12
2022-12-25T00:04:44.612Z,63.86
2022-12-25T00:07:11.723Z,65.16
2022-12-25T00:09:38.385Z,65.08
2022-12-25T00:12:05.197Z,65.09
2022-12-25T00:14:31.824Z,63.56
2022-12-25T00:16:58.656Z,64.09
2022-12-25T00:19:25.290Z,64.01
2022-12-25T00:21:51.854Z,63.95
2022-12-25T00:24:18.459Z,65.24
2022-12-25T00:26:45.036Z,65.47
2022-12-25T00:29:12.952Z,65.23
2022-12-25T00:31:39.815Z,64.96
2022-12-25T00:34:06.521Z,64.48
2022-12-25T00:36:37.883Z,65.31
2022-12-25T00:39:08.085Z,64.60
2022-12-25T00:41:53.071Z,65.85
2022-12-25T00:44:19.712Z,65.50
2022-12-25T00:46:46.412Z,65.94
2022-12-25T00:49:13.465Z,65.78
2022-12-25T00:51:40.339Z,64.84
2022-12-25T00:54:07.404Z,65.34
2022-12-25T00:56:34.641Z,65.33
2022-12-25T00:59:01.239Z,65.34
2022-12-25T01:01:28.041Z,66.61
2022-12-25T01:03:55.151Z,66.31
2022-12-25T01:06:21.813Z,66.16
2022-12-25T01:09:06.940Z,66.78
2022-12-25T01:11:33.789Z,66.74
2022-12-25T01:14:00.449Z,65.33
2022-12-25T01:16:27.913Z,64.83
2022-12-25T01:18:54.801Z,64.58
2022-12-25T01:21:21.890Z,64.02
2022-12-25T01:23:50.481Z,62.99
2022-12-25T01:26:18.482Z,63.66
2022-12-25T01:28:45.403Z,63.78
2022-12-25T01:31:14.672Z,64.61
2022-12-25T01:33:43.407Z,63.98
2022-12-25T01:36:18.708Z,64.09
2022-12-25T01:38:46.477Z,64.91
2022-12-25T01:41:15.416Z,64.17
2022-12-25T01:43:58.986Z,64.28
2022-12-25T01:46:25.974Z,63.87
2022-12-25T01:48:54.355Z,64.11
2022-12-25T01:51:34.434Z,64.96
2022-12-25T01:54:05.635Z,64.05
2022-12-25T01:56:34.552Z,63.66
2022-12-25T01:59:04.126Z,64.06
2022-12-25T02:01:30.918Z,63.56
2022-12-25T02:04:07.066Z,65.48
2022-12-25T02:06:35.118Z,64.78
2022-12-25T02:09:01.915Z,64.50
2022-12-25T02:11:47.252Z,63.99
2022-12-25T02:14:13.876Z,64.36
2022-12-25T02:16:57.414Z,65.45
2022-12-25T02:19:28.316Z,64.65
2022-12-25T02:22:03.895Z,64.53
2022-12-25T02:24:51.917Z,65.56
2022-12-25T02:27:55.909Z,65.83
2022-12-25T02:30:22.796Z,66.92
2022-12-25T02:33:18.930Z,66.68
2022-12-25T02:35:50.760Z,66.56
2022-12-25T02:38:27.916Z,65.56
2022-12-25T02:40:59.760Z,65.99
2022-12-25T02:43:59.364Z,66.40
2022-12-25T02:46:46.555Z,65.70
2022-12-25T02:49:36.732Z,65.12
2022-12-25T02:52:27.444Z,64.94
2022-12-25T02:55:20.770Z,65.18
2022-12-25T02:58:09.673Z,64.96
2022-12-25T03:01:02.202Z,65.87
2022-12-25T03:03:51.534Z,65.37
2022-12-25T03:06:39.525Z,65.22
2022-12-25T03:09:27.968Z,64.81
2022-12-25T03:12:15.239Z,65.05
2022-12-25T03:15:00.452Z,65.44
2022-12-25T03:17:27.199Z,64.75
2022-12-25T03:20:12.392Z,66.19
2022-12-25T03:23:00.058Z,66.33
2022-12-25T03:25:47.123Z,66.53
2022-12-25T03:28:14.032Z,67.81
2022-12-25T03:31:14.130Z,66.50
2022-12-25T03:34:17.470Z,65.50
2022-12-25T03:37:16.649Z,64.91
2022-12-25T03:40:22.379Z,66.07
2022-12-25T03:43:14.324Z,65.99
2022-12-25T03:46:05.235Z,65.16
2022-12-25T03:48:54.543Z,64.88
2022-12-25T03:51:47.655Z,64.32
2022-12-25T03:54:37.129Z,65.50
2022-12-25T03:57:22.746Z,65.71
2022-12-25T04:00:08.138Z,66.06
2022-12-25T04:02:55.389Z,64.69
2022-12-25T04:05:41.137Z,65.03
2022-12-25T04:08:26.130Z,65.95
2022-12-25T04:11:11.434Z,66.63
2022-12-25T04:13:56.915Z,66.04
2022-12-25T04:16:41.959Z,65.19
2022-12-25T04:19:28.469Z,66.05
2022-12-25T04:22:13.770Z,65.76
2022-12-25T04:24:58.813Z,65.66
2022-12-25T04:27:43.887Z,67.52
2022-12-25T04:30:29.344Z,67.44
2022-12-25T04:33:17.740Z,67.93
2022-12-25T04:36:06.767Z,67.08
2022-12-25T04:38:33.464Z,65.99
2022-12-25T04:41:03.712Z,66.57
2022-12-25T04:43:30.611Z,65.58
2022-12-25T04:45:59.731Z,65.90
2022-12-25T04:48:27.791Z,66.56
2022-12-25T04:50:54.389Z,66.95
2022-12-25T04:53:21.099Z,67.70
2022-12-25T04:55:47.745Z,66.78
2022-12-25T04:58:14.525Z,66.20
2022-12-25T05:00:41.076Z,65.84
2022-12-25T05:03:07.867Z,65.67
2022-12-25T05:05:34.535Z,65.33
2022-12-25T05:08:01.208Z,66.13
2022-12-25T05:10:27.841Z,66.52
2022-12-25T05:12:54.652Z,66.75
2022-12-25T05:15:21.226Z,67.38
2022-12-25T05:17:47.865Z,66.89
2022-12-25T05:20:14.403Z,67.32
2022-12-25T05:22:42.168Z,67.07
2022-12-25T05:25:08.903Z,67.75
2022-12-25T05:27:35.547Z,67.86
2022-12-25T05:30:02.933Z,68.02
2022-12-25T05:32:29.537Z,67.69
2022-12-25T05:34:56.152Z,67.36
2022-12-25T05:37:22.788Z,68.07
2022-12-25T05:39:49.383Z,68.03
2022-12-25T05:42:15.983Z,68.21
2022-12-25T05:44:42.565Z,68.60
2022-12-25T05:47:09.250Z,68.79
2022-12-25T05:49:35.815Z,69.02
2022-12-25T05:52:02.573Z,68.31
2022-12-25T05:54:29.157Z,67.73
2022-12-25T05:56:55.928Z,67.32
2022-12-25T05:59:22.530Z,68.52
2022-12-25T06:01:49.264Z,67.61
2022-12-25T06:04:16.040Z,68.17
2022-12-25T06:06:42.719Z,68.91
2022-12-25T06:09:11.681Z,69.27
2022-12-25T06:11:38.325Z,69.28
2022-12-25T06:14:05.733Z,68.71
2022-12-25T06:16:37.913Z,67.64
2022-12-25T06:19:05.009Z,68.23
2022-12-25T06:21:32.075Z,67.92
2022-12-25T06:24:02.145Z,68.25
2022-12-25T06:26:28.810Z,68.18
2022-12-25T06:28:55.364Z,67.67
2022-12-25T06:31:23.680Z,67.20
2022-12-25T06:33:50.645Z,67.96
2022-12-25T06:36:19.785Z,68.62
2022-12-25T06:38:46.910Z,66.48
2022-12-25T06:41:16.855Z,66.94
2022-12-25T06:43:43.860Z,67.33
2022-12-25T06:46:12.382Z,66.36
2022-12-25T06:48:40.700Z,67.34
2022-12-25T06:51:07.908Z,68.07
2022-12-25T06:53:39.716Z,67.88
2022-12-25T06:56:15.240Z,67.41
2022-12-25T06:58:50.263Z,68.42
2022-12-25T07:01:19.799Z,67.75
2022-12-25T07:03:48.500Z,67.86
2022-12-25T07:06:15.229Z,68.36
2022-12-25T07:08:41.781Z,68.67
2022-12-25T07:11:08.902Z,69.08
2022-12-25T07:13:35.491Z,68.78
2022-12-25T07:16:04.097Z,69.19
2022-12-25T07:18:31.547Z,69.35
2022-12-25T07:20:59.711Z,68.84
2022-12-25T07:23:26.866Z,68.26
2022-12-25T07:25:58.326Z,67.98
2022-12-25T07:28:26.010Z,67.99
2022-12-25T07:30:53.206Z,68.45
2022-12-25T07:33:20.106Z,68.97
2022-12-25T07:35:46.922Z,69.22
2022-12-25T07:38:13.554Z,69.42
2022-12-25T07:40:40.158Z,69.13
2022-12-25T07:43:06.812Z,69.63
2022-12-25T07:45:33.810Z,69.98
2022-12-25T07:48:05.206Z,70.08
2022-12-25T07:50:33.084Z,70.58
2022-12-25T07:52:59.761Z,70.92
2022-12-25T07:55:26.435Z,70.90
2022-12-25T07:57:53.388Z,69.87
2022-12-25T08:00:20.509Z,69.39
2022-12-25T08:02:50.422Z,69.40
2022-12-25T08:05:17.331Z,69.68
2022-12-25T08:07:44.121Z,69.25
2022-12-25T08:10:11.314Z,69.83
2022-12-25T08:12:37.967Z,70.10
2022-12-25T08:15:05.451Z,68.98
2022-12-25T08:17:34.738Z,69.24
2022-12-25T08:20:01.411Z,69.75
2022-12-25T08:22:27.990Z,69.72
2022-12-25T08:24:54.631Z,69.82
2022-12-25T08:27:24.247Z,70.44
2022-12-25T08:29:50.793Z,70.74
2022-12-25T08:32:17.347Z,70.56
2022-12-25T08:34:43.967Z,70.42
2022-12-25T08:37:10.520Z,70.11
2022-12-25T08:39:37.218Z,69.96
2022-12-25T08:42:04.004Z,70.29
2022-12-25T08:44:30.653Z,70.16
2022-12-25T08:46:57.330Z,70.59
2022-12-25T08:49:27.327Z,71.63
2022-12-25T08:51:54.191Z,71.21
2022-12-25T08:54:20.803Z,72.11
2022-12-25T08:56:47.786Z,71.70
2022-12-25T08:59:14.333Z,72.32
2022-12-25T09:01:41.060Z,71.88
2022-12-25T09:04:07.829Z,71.71
2022-12-25T09:06:34.517Z,71.38
2022-12-25T09:09:01.153Z,71.41
2022-12-25T09:11:27.866Z,71.78
2022-12-25T09:13:54.502Z,71.75
2022-12-25T09:16:23.083Z,72.57
2022-12-25T09:18:51.139Z,72.80
2022-12-25T09:21:18.809Z,72.74
2022-12-25T09:23:45.551Z,72.44
2022-12-25T09:26:14.609Z,72.51
2022-12-25T09:28:46.630Z,72.53
2022-12-25T09:31:17.209Z,72.61
2022-12-25T09:33:43.888Z,72.24
2022-12-25T09:36:11.051Z,72.06
2022-12-25T09:38:37.668Z,71.97
2022-12-25T09:41:41.704Z,72.77
2022-12-25T09:44:12.012Z,71.85
2022-12-25T09:46:44.653Z,72.55
2022-12-25T09:49:17.017Z,72.31
2022-12-25T09:51:45.758Z,71.94
2022-12-25T09:54:29.791Z,71.65
2022-12-25T09:56:56.466Z,71.92
2022-12-25T09:59:27.354Z,70.83
2022-12-25T10:02:24.373Z,70.09
2022-12-25T10:05:08.390Z,70.56
2022-12-25T10:07:50.689Z,71.75
2022-12-25T10:10:45.299Z,72.62
2022-12-25T10:13:40.593Z,72.53
2022-12-25T10:16:22.456Z,72.28
2022-12-25T10:19:02.120Z,72.17
2022-12-25T10:21:29.123Z,71.93
2022-12-25T10:23:58.750Z,71.89
2022-12-25T10:26:26.491Z,71.58
2022-12-25T10:29:00.150Z,71.29
2022-12-25T10:31:29.027Z,70.68
2022-12-25T10:33:56.368Z,70.96
2022-12-25T10:36:28.989Z,71.12
2022-12-25T10:38:56.304Z,70.94
2022-12-25T10:41:41.349Z,70.98
2022-12-25T10:44:20.137Z,71.81
2022-12-25T10:46:55.636Z,70.88
2022-12-25T10:49:25.957Z,70.83
2022-12-25T10:51:52.895Z,71.13
2022-12-25T10:54:21.605Z,71.63
2022-12-25T10:57:01.326Z,72.16
2022-12-25T10:59:30.831Z,71.62
2022-12-25T11:02:11.340Z,72.20
2022-12-25T11:04:38.313Z,72.67
2022-12-25T11:07:19.296Z,72.71
2022-12-25T11:09:51.784Z,73.39
2022-12-25T11:12:20.716Z,72.63
2022-12-25T11:14:58.612Z,72.70
2022-12-25T11:17:26.973Z,72.18
2022-12-25T11:20:02.935Z,72.41
2022-12-25T11:22:31.709Z,73.36
2022-12-25T11:25:11.768Z,73.42
2022-12-25T11:27:38.369Z,73.36
2022-12-25T11:30:12.660Z,73.30
2022-12-25T11:32:47.489Z,73.91
2022-12-25T11:35:17.342Z,74.48
2022-12-25T11:37:52.271Z,74.48
2022-12-25T11:40:24.563Z,74.35
2022-12-25T11:43:07.552Z,73.87
2022-12-25T11:45:39.078Z,74.63
2022-12-25T11:48:25.740Z,75.02
2022-12-25T11:50:59.275Z,74.67
2022-12-25T11:53:41.264Z,74.49
2022-12-25T11:56:11.719Z,74.34
2022-12-25T11:58:57.773Z,74.52
2022-12-25T12:01:33.552Z,75.21
2022-12-25T12:04:03.049Z,75.95
2022-12-25T12:06:44.679Z,76.17
2022-12-25T12:09:36.310Z,75.96
2022-12-25T12:12:17.852Z,75.76
2022-12-25T12:14:56.042Z,76.21
2022-12-25T12:17:22.770Z,76.60
2022-12-25T12:19:49.526Z,76.37
2022-12-25T12:22:24.219Z,76.13
2022-12-25T12:24:59.827Z,76.15
2022-12-25T12:27:38.951Z,76.26
2022-12-25T12:30:07.402Z,75.98
2022-12-25T12:32:36.566Z,76.39
2022-12-25T12:35:16.394Z,76.12
2022-12-25T12:37:46.417Z,76.09
2022-12-25T12:40:27.217Z,76.02
2022-12-25T12:42:54.580Z,75.77
2022-12-25T12:45:29.227Z,75.33
2022-12-25T12:47:56.643Z,74.94
2022-12-25T12:50:34.273Z,75.66
2022-12-25T12:53:26.608Z,75.82
2022-12-25T12:55:53.310Z,75.51
2022-12-25T12:58:34.887Z,75.66
2022-12-25T13:01:26.692Z,75.98
2022-12-25T13:04:29.909Z,76.34
2022-12-25T13:07:11.366Z,75.49
2022-12-25T13:10:06.084Z,75.89
2022-12-25T13:12:32.984Z,75.72
2022-12-25T13:15:00.469Z,75.92
2022-12-25T13:17:28.877Z,75.62
2022-12-25T13:19:58.665Z,75.94
2022-12-25T13:22:31.856Z,75.11
2022-12-25T13:25:01.266Z,75.30
2022-12-25T13:27:30.640Z,75.26
2022-12-25T13:29:57.987Z,75.40
2022-12-25T13:32:30.893Z,75.84
2022-12-25T13:34:59.398Z,75.32
2022-12-25T13:37:28.999Z,75.04
2022-12-25T13:39:59.176Z,75.06
2022-12-25T13:42:32.576Z,74.98
2022-12-25T13:45:20.659Z,75.04
2022-12-25T13:47:53.098Z,74.72
2022-12-25T13:50:28.904Z,75.15
2022-12-25T13:53:14.118Z,75.23
2022-12-25T13:55:42.342Z,74.99
2022-12-25T13:58:27.408Z,75.01
2022-12-25T14:00:56.840Z,74.45
2022-12-25T14:03:34.848Z,75.07
2022-12-25T14:06:04.339Z,74.93
2022-12-25T14:08:33.602Z,75.46
2022-12-25T14:11:05.907Z,75.24
2022-12-25T14:13:37.450Z,75.69
2022-12-25T14:16:07.136Z,75.70
2022-12-25T14:18:34.368Z,75.95
2022-12-25T14:21:24.077Z,76.04
2022-12-25T14:23:50.988Z,75.82
2022-12-25T14:26:20.854Z,75.70
2022-12-25T14:29:16.756Z,75.20
2022-12-25T14:31:45.409Z,76.14
2022-12-25T14:34:17.965Z,76.34
2022-12-25T14:36:45.228Z,76.45
2022-12-25T14:39:33.464Z,75.96
2022-12-25T14:42:10.208Z,75.89
2022-12-25T14:44:39.489Z,75.58
2022-12-25T14:47:26.817Z,75.56
2022-12-25T14:49:54.686Z,76.03
2022-12-25T14:52:32.334Z,76.41
2022-12-25T14:55:05.951Z,76.72
2022-12-25T14:57:40.336Z,76.80
2022-12-25T15:00:21.020Z,76.83
2022-12-25T15:02:48.993Z,76.92
2022-12-25T15:05:41.817Z,77.09
2022-12-25T15:08:08.498Z,77.30
2022-12-25T15:13:22.249Z,76.90
2022-12-25T15:16:19.429Z,76.22
2022-12-25T15:18:50.564Z,76.64
2022-12-25T15:21:28.686Z,77.27
2022-12-25T15:23:59.881Z,77.14
2022-12-25T15:26:28.820Z,77.08
2022-12-25T15:28:55.460Z,77.03
2022-12-25T15:31:31.959Z,76.66
2022-12-25T15:34:01.239Z,77.28
2022-12-25T15:36:27.991Z,77.95
2022-12-25T15:38:54.992Z,77.99
2022-12-25T15:41:53.398Z,77.55
2022-12-25T15:44:20.192Z,77.91
2022-12-25T15:46:47.475Z,78.20
2022-12-25T15:49:15.235Z,78.38
2022-12-25T15:51:43.263Z,78.65
2022-12-25T15:54:10.516Z,78.97
2022-12-25T15:56:43.557Z,78.24
2022-12-25T15:59:14.392Z,78.46
2022-12-25T16:01:45.674Z,78.31
2022-12-25T16:04:12.756Z,78.89
2022-12-25T16:06:39.301Z,79.08
2022-12-25T16:09:05.979Z,78.84
2022-12-25T16:11:32.527Z,79.67
2022-12-25T16:13:59.308Z,79.23
2022-12-25T16:16:26.156Z,79.16
2022-12-25T16:18:52.754Z,79.50
2022-12-25T16:21:21.079Z,78.84
2022-12-25T16:23:47.935Z,78.89
2022-12-25T16:26:14.903Z,78.75
2022-12-25T16:28:41.572Z,79.47
2022-12-25T16:31:08.344Z,78.80
2022-12-25T16:33:34.929Z,78.78
2022-12-25T16:36:01.624Z,79.25
2022-12-25T16:38:28.194Z,80.15
2022-12-25T16:41:00.162Z,79.78
2022-12-25T16:43:27.944Z,80.04
2022-12-25T16:45:54.724Z,79.45
2022-12-25T16:48:21.626Z,79.95
2022-12-25T16:50:48.281Z,79.83
2022-12-25T16:53:14.925Z,79.72
2022-12-25T16:55:41.620Z,79.45
2022-12-25T16:58:08.312Z,80.00
2022-12-25T17:00:37.095Z,80.00
2022-12-25T17:03:03.925Z,80.13
2022-12-25T17:05:33.567Z,79.93
2022-12-25T17:08:00.185Z,80.06
2022-12-25T17:10:27.102Z,80.00
2022-12-25T17:12:54.032Z,80.20
2022-12-25T17:15:21.970Z,80.01
2022-12-25T17:17:48.533Z,79.95
2022-12-25T17:20:15.263Z,79.79
2022-12-25T17:22:41.863Z,80.07
2022-12-25T17:25:09.016Z,80.04
2022-12-25T17:27:35.622Z,80.29
2022-12-25T17:30:02.218Z,80.46
2022-12-25T17:32:28.786Z,80.73
2022-12-25T17:34:55.435Z,80.21
2022-12-25T17:37:22.157Z,81.00
2022-12-25T17:39:48.902Z,80.60
2022-12-25T17:42:15.549Z,80.43
2022-12-25T17:44:42.409Z,80.62
2022-12-25T17:47:09.096Z,80.35
2022-12-25T17:49:37.883Z,80.02
2022-12-25T17:52:04.586Z,80.19
2022-12-25T17:54:31.347Z,80.17
2022-12-25T17:56:57.969Z,80.82
2022-12-25T17:59:29.706Z,80.28
2022-12-25T18:01:56.588Z,80.92
2022-12-25T18:04:24.315Z,81.19
2022-12-25T18:06:51.288Z,80.79
2022-12-25T18:09:18.854Z,81.39
2022-12-25T18:11:45.827Z,80.41
2022-12-25T18:14:15.226Z,80.47
2022-12-25T18:16:44.386Z,79.93
2022-12-25T18:19:12.786Z,80.59
2022-12-25T18:21:39.865Z,80.51
2022-12-25T18:24:07.606Z,80.38
2022-12-25T18:26:35.141Z,80.33
2022-12-25T18:29:03.004Z,80.01
2022-12-25T18:31:32.566Z,79.56
2022-12-25T18:34:00.352Z,80.32
2022-12-25T18:36:29.072Z,79.79
2022-12-25T18:38:57.430Z,80.19
2022-12-25T18:41:24.470Z,80.43
2022-12-25T18:43:53.461Z,80.40
2022-12-25T18:46:24.938Z,80.27
2022-12-25T18:48:53.249Z,80.75
2022-12-25T18:51:19.989Z,80.30
2022-12-25T18:53:46.808Z,80.16
2022-12-25T18:56:15.647Z,80.62
2022-12-25T18:58:43.284Z,80.25
2022-12-25T19:01:18.106Z,80.35
2022-12-25T19:03:46.076Z,80.74
2022-12-25T19:06:33.078Z,81.17
2022-12-25T19:08:59.744Z,81.34
2022-12-25T19:11:26.584Z,81.67
2022-12-25T19:13:53.297Z,80.93
2022-12-25T19:16:20.237Z,80.89
2022-12-25T19:18:46.834Z,80.82
2022-12-25T19:21:13.471Z,80.96
2022-12-25T19:23:40.111Z,81.16
2022-12-25T19:26:08.112Z,80.71
2022-12-25T19:28:35.584Z,80.32
2022-12-25T19:31:04.211Z,80.37
2022-12-25T19:33:31.859Z,80.94
2022-12-25T19:36:02.975Z,80.55
2022-12-25T19:38:29.663Z,81.21
2022-12-25T19:41:02.874Z,80.77
2022-12-25T19:43:35.326Z,80.82
2022-12-25T19:46:02.683Z,80.96
2022-12-25T19:48:30.591Z,81.65
2022-12-25T19:50:57.266Z,80.99
2022-12-25T19:53:24.533Z,81.05
2022-12-25T19:55:55.456Z,81.23
2022-12-25T19:58:23.596Z,81.10
2022-12-25T20:00:57.905Z,81.44
2022-12-25T20:03:25.113Z,81.82
2022-12-25T20:05:52.425Z,81.82
2022-12-25T20:08:19.678Z,81.72
2022-12-25T20:10:46.587Z,80.96
2022-12-25T20:13:13.235Z,80.74
2022-12-25T20:15:39.995Z,81.15
2022-12-25T20:18:06.733Z,81.30
2022-12-25T20:20:33.355Z,81.17
2022-12-25T20:22:59.971Z,81.53
2022-12-25T20:25:26.708Z,80.93
2022-12-25T20:27:53.429Z,81.52
2022-12-25T20:30:19.990Z,80.74
2022-12-25T20:32:50.339Z,81.29
2022-12-25T20:35:17.675Z,80.39
2022-12-25T20:37:44.708Z,80.47
2022-12-25T20:40:12.101Z,80.77
2022-12-25T20:42:38.697Z,80.64
2022-12-25T20:45:07.464Z,80.11
2022-12-25T20:47:34.920Z,80.42
2022-12-25T20:50:01.951Z,80.44
2022-12-25T20:52:28.545Z,80.31
2022-12-25T20:54:55.192Z,80.42
2022-12-25T20:57:22.109Z,80.31
2022-12-25T20:59:48.755Z,80.33
2022-12-25T21:02:35.042Z,79.88
2022-12-25T21:05:02.275Z,79.48
2022-12-25T21:07:29.087Z,79.41
2022-12-25T21:09:55.837Z,79.50
2022-12-25T21:12:22.419Z,79.55
2022-12-25T21:14:49.030Z,79.52
2022-12-25T21:17:16.884Z,79.41
2022-12-25T21:19:43.605Z,79.37
2022-12-25T21:22:10.352Z,79.13
2022-12-25T21:24:37.120Z,78.85
2022-12-25T21:27:03.804Z,78.92
2022-12-25T21:29:30.828Z,79.30
2022-12-25T21:32:15.886Z,79.09
2022-12-25T21:34:42.580Z,79.02
2022-12-25T21:37:09.142Z,79.04
2022-12-25T21:39:35.818Z,78.98
2022-12-25T21:42:04.658Z,78.46
2022-12-25T21:44:31.407Z,79.28
2022-12-25T21:46:57.966Z,78.64
2022-12-25T21:49:43.431Z,79.63
2022-12-25T21:52:10.528Z,79.86
2022-12-25T21:54:37.497Z,79.58
2022-12-25T21:57:05.034Z,79.19
2022-12-25T21:59:31.654Z,79.74
2022-12-25T22:01:59.490Z,79.20
2022-12-25T22:04:26.587Z,79.36
2022-12-25T22:07:11.826Z,79.32
2022-12-25T22:09:38.614Z,79.26
2022-12-25T22:12:27.386Z,79.41
2022-12-25T22:15:02.762Z,79.25
2022-12-25T22:17:51.911Z,79.86
2022-12-25T22:20:24.287Z,79.41
2022-12-25T22:22:51.350Z,79.10
2022-12-25T22:25:18.895Z,77.98
2022-12-25T22:27:46.932Z,78.27
2022-12-25T22:30:16.292Z,78.67
2022-12-25T22:32:43.492Z,78.98
2022-12-25T22:35:12.477Z,78.66
2022-12-25T22:37:40.215Z,78.10
2022-12-25T22:40:07.994Z,78.26
2022-12-25T22:42:35.089Z,78.59
2022-12-25T22:45:02.475Z,79.17
2022-12-25T22:47:29.157Z,78.74
2022-12-25T22:49:55.830Z,79.13
2022-12-25T22:52:22.644Z,79.18
2022-12-25T22:54:49.356Z,80.28
2022-12-25T22:57:15.971Z,81.02
2022-12-25T22:59:42.603Z,80.39
2022-12-25T23:02:09.287Z,80.13
2022-12-25T23:04:36.094Z,80.82
2022-12-25T23:07:02.792Z,80.53
2022-12-25T23:09:31.079Z,80.05
2022-12-25T23:11:58.744Z,78.54
2022-12-25T23:14:41.771Z,78.19
2022-12-25T23:17:29.883Z,78.71
2022-12-25T23:20:18.239Z,78.94
2022-12-25T23:23:04.615Z,79.63
2022-12-25T23:25:49.923Z,79.08
2022-12-25T23:28:36.560Z,79.54
2022-12-25T23:31:03.365Z,79.99
2022-12-25T23:33:30.160Z,79.52
2022-12-25T23:35:56.777Z,79.85
2022-12-25T23:38:23.357Z,80.55
2022-12-25T23:40:49.956Z,80.11
2022-12-25T23:43:16.836Z,79.99
2022-12-25T23:45:43.447Z,79.75
2022-12-25T23:48:10.006Z,79.65
2022-12-25T23:50:37.491Z,79.96
2022-12-25T23:53:04.068Z,79.91
2022-12-25T23:55:30.713Z,79.70
2022-12-25T23:57:57.277Z,80.29
